Aérodrome :
LOGIN :

S'inscrire | Disclaimer

   EN    FR    IT 

 










Légende :    VFR   VFR Marginal   IFR   IFR Intensif   IFR Très Intensif
Visi : 
Plafond : 
>= 8 km
>= 3000ft
5 à 8 km
1000 à 3000 ft
1500m à 5 km
500 à 1000 ft
800 à 1500m
200 à 500 ft
< 800m
< 200 ft
Symboles :   Orages  Brouillard  Fortes neiges  Fortes précipitations  Vent > 20 kt
SIGMETs :   Divers  Orages  Givrage  Turbulence  Onde Orograph.  Cendres Volcan.






- Altitude de l'aérodrome : 26 ft


ETNT - Wittmundhaven AB

DERNIER METAR :
  • 030820Z 28004KT 9999 FEW024 SCT080 18/12 Q1013 BLU+BLU+ TEMPO WHT

METARs EXPIRÉS :
  • 030803Z 28004KT 9999 FEW024 SCT080 17/12 Q1014 BLU+BLU+
  • 030720Z 30003KT 9999 FEW022 SCT049 BKN080 16/13 Q1014 BLU BLU
  • 030702Z 29004KT 9999 FEW020 SCT049 BKN080 16/13 Q1014 BLU BLU
  • 030620Z 28004KT 9999 FEW020 SCT049 BKN080 15/13 Q1014 BLU BLU
  • 030520Z 24002KT 9999 SCT049 SCT080 13/13 Q1013 BLU+BLU+

TAF TAF ETNT
Valide du 03 à 08h jusqu'au 03 à 17h UTC


030700Z 0308/0317 30005KT 9999 NSW FEW025 SCT050 BKN070
TEMPO 0309/0317 27010KT 6000 -SHRA BKN022TCU BY ETGL



MET'MAP, la Météo Aéronautique d'un coup d'oeil ! - Copyright ORBIFLY Décembre 2007 - Disclaimer

ORBIFLY MET'MAP TEAM :

Programmation & Développement : Alexandra Zaïnal
Sur une idée originale de : Baudouin d'Aumeries
Assistance à la programmation : Marc-Olivier Méhu
Soutien technique & logistique : Manuel Goepfert

Contact : metmap@orbifly.com




SOURCES & CREDITS :

   NOAA